createdAt,value
2023-03-14T00:00:28.341Z,5.80
2023-03-14T00:02:56.551Z,5.43
2023-03-14T00:05:24.731Z,4.93
2023-03-14T00:07:52.714Z,5.60
2023-03-14T00:10:22.707Z,5.67
2023-03-14T00:12:50.637Z,6.33
2023-03-14T00:15:18.646Z,5.90
2023-03-14T00:17:46.831Z,6.17
2023-03-14T00:20:14.935Z,13.00
2023-03-14T00:22:43.288Z,12.77
2023-03-14T00:25:12.528Z,12.73
2023-03-14T00:27:41.937Z,13.90
2023-03-14T00:30:11.329Z,19.13
2023-03-14T00:32:39.708Z,17.37
2023-03-14T00:35:08.494Z,23.47
2023-03-14T00:37:36.631Z,17.93
2023-03-14T00:40:07.673Z,12.60
2023-03-14T00:42:36.287Z,10.53
2023-03-14T00:45:06.371Z,8.80
2023-03-14T00:47:35.505Z,8.17
2023-03-14T00:50:03.884Z,7.10
2023-03-14T00:52:31.866Z,8.50
2023-03-14T00:54:59.891Z,9.20
2023-03-14T00:57:27.969Z,7.93
2023-03-14T00:59:55.933Z,10.37
2023-03-14T01:02:25.364Z,7.90
2023-03-14T01:04:53.465Z,7.33
2023-03-14T01:07:21.472Z,6.67
2023-03-14T01:09:53.413Z,10.30
2023-03-14T01:12:21.408Z,8.63
2023-03-14T01:14:49.399Z,8.80
2023-03-14T01:17:17.370Z,7.43
2023-03-14T01:19:46.699Z,6.70
2023-03-14T01:22:14.715Z,7.63
2023-03-14T01:24:42.817Z,10.20
2023-03-14T01:27:10.749Z,6.43
2023-03-14T01:29:38.755Z,6.87
2023-03-14T01:32:07.587Z,7.40
2023-03-14T01:34:35.685Z,7.60
2023-03-14T01:37:05.108Z,5.80
2023-03-14T01:39:33.167Z,6.93
2023-03-14T01:42:02.709Z,8.40
2023-03-14T01:44:30.748Z,8.33
2023-03-14T01:46:58.804Z,6.43
2023-03-14T01:49:31.717Z,7.63
2023-03-14T01:52:12.573Z,6.77
2023-03-14T01:54:43.494Z,6.53
2023-03-14T01:57:14.966Z,6.40
2023-03-14T01:59:46.296Z,6.63
2023-03-14T02:02:15.373Z,6.50
2023-03-14T02:04:44.393Z,7.03
2023-03-14T02:07:19.729Z,6.20
2023-03-14T02:09:59.999Z,5.70
2023-03-14T02:12:32.143Z,8.07
2023-03-14T02:15:13.823Z,6.43
2023-03-14T02:18:20.826Z,5.90
2023-03-14T02:21:06.480Z,9.83
2023-03-14T02:23:42.222Z,5.67
2023-03-14T02:26:14.185Z,8.30
2023-03-14T02:28:43.791Z,5.57
2023-03-14T02:31:13.084Z,7.03
2023-03-14T02:33:41.187Z,5.37
2023-03-14T02:36:13.861Z,6.60
2023-03-14T02:38:48.032Z,5.50
2023-03-14T02:41:16.889Z,5.07
2023-03-14T02:43:52.298Z,5.67
2023-03-14T02:46:23.224Z,6.33
2023-03-14T02:48:55.440Z,5.23
2023-03-14T02:51:25.213Z,5.87
2023-03-14T02:53:53.208Z,4.23
2023-03-14T02:56:22.528Z,7.20
2023-03-14T02:58:52.654Z,4.40
2023-03-14T03:01:28.669Z,5.20
2023-03-14T03:03:56.768Z,5.10
2023-03-14T03:06:24.849Z,4.80
2023-03-14T03:08:52.901Z,4.43
2023-03-14T03:11:20.916Z,4.70
2023-03-14T03:13:48.886Z,5.00
2023-03-14T03:16:18.437Z,4.27
2023-03-14T03:18:46.629Z,4.13
2023-03-14T03:21:14.644Z,4.30
2023-03-14T03:23:44.957Z,5.37
2023-03-14T03:26:12.903Z,4.73
2023-03-14T03:28:40.903Z,4.40
2023-03-14T03:31:10.263Z,3.87
2023-03-14T03:33:40.767Z,4.80
2023-03-14T03:36:10.226Z,4.90
2023-03-14T03:38:40.743Z,4.23
2023-03-14T03:41:09.600Z,4.77
2023-03-14T03:43:37.656Z,4.60
2023-03-14T03:46:08.645Z,4.97
2023-03-14T03:48:37.653Z,4.80
2023-03-14T03:51:08.811Z,4.60
2023-03-14T03:53:38.099Z,4.63
2023-03-14T03:56:11.500Z,4.37
2023-03-14T03:58:40.560Z,6.40
2023-03-14T04:01:08.949Z,5.97
2023-03-14T04:03:39.796Z,4.83
2023-03-14T04:06:12.157Z,5.60
2023-03-14T04:08:42.429Z,6.30
2023-03-14T04:11:13.786Z,5.57
2023-03-14T04:14:05.045Z,8.37
2023-03-14T04:16:33.418Z,6.30
2023-03-14T04:19:06.820Z,6.13
2023-03-14T04:21:36.252Z,12.40
2023-03-14T04:24:04.599Z,6.47
2023-03-14T04:26:35.324Z,7.23
2023-03-14T04:29:03.421Z,7.00
2023-03-14T04:31:31.606Z,7.97
2023-03-14T04:33:59.986Z,8.03
2023-03-14T04:36:40.402Z,7.37
2023-03-14T04:39:12.916Z,6.73
2023-03-14T04:41:47.083Z,7.20
2023-03-14T04:44:15.277Z,8.50
2023-03-14T04:46:43.756Z,6.73
2023-03-14T04:49:13.074Z,7.43
2023-03-14T04:51:42.775Z,8.17
2023-03-14T04:54:11.246Z,8.60
2023-03-14T04:56:40.975Z,10.37
2023-03-14T04:59:10.234Z,8.30
2023-03-14T05:01:42.382Z,7.67
2023-03-14T05:04:33.990Z,6.87
2023-03-14T05:07:18.061Z,6.80
2023-03-14T05:09:57.337Z,7.27
2023-03-14T05:12:48.342Z,10.20
2023-03-14T05:15:35.969Z,8.70
2023-03-14T05:18:24.200Z,8.57
2023-03-14T05:21:12.533Z,8.10
2023-03-14T05:24:00.968Z,9.00
2023-03-14T05:26:37.392Z,7.33
2023-03-14T05:29:25.662Z,14.00
2023-03-14T05:32:06.033Z,10.27
2023-03-14T05:34:54.070Z,8.30
2023-03-14T05:37:41.940Z,8.60
2023-03-14T05:40:22.931Z,8.17
2023-03-14T05:43:08.947Z,8.10
2023-03-14T05:45:37.340Z,8.97
2023-03-14T05:48:14.817Z,7.77
2023-03-14T05:51:13.033Z,8.13
2023-03-14T05:54:05.158Z,6.73
2023-03-14T05:57:03.751Z,7.07
2023-03-14T05:59:41.386Z,6.33
2023-03-14T06:02:38.091Z,6.63
2023-03-14T06:05:16.024Z,7.07
2023-03-14T06:07:43.984Z,6.50
2023-03-14T06:10:12.701Z,6.50
2023-03-14T06:12:42.062Z,6.37
2023-03-14T06:15:10.859Z,6.27
2023-03-14T06:17:39.403Z,5.90
2023-03-14T06:20:12.965Z,5.70
2023-03-14T06:22:43.022Z,6.13
2023-03-14T06:25:12.813Z,6.20
2023-03-14T06:27:42.334Z,6.47
2023-03-14T06:30:12.244Z,5.90
2023-03-14T06:32:40.570Z,5.63
2023-03-14T06:35:12.424Z,5.70
2023-03-14T06:37:43.272Z,5.50
2023-03-14T06:40:18.821Z,5.40
2023-03-14T06:42:54.019Z,8.03
2023-03-14T06:45:23.923Z,6.07
2023-03-14T06:47:53.232Z,6.87
2023-03-14T06:50:25.355Z,5.50
2023-03-14T06:52:54.536Z,5.07
2023-03-14T06:55:27.123Z,5.87
2023-03-14T06:57:57.025Z,5.87
2023-03-14T07:00:25.944Z,5.50
2023-03-14T07:02:57.037Z,4.93
2023-03-14T07:05:30.220Z,5.00
2023-03-14T07:07:58.463Z,5.60
2023-03-14T07:10:26.924Z,5.27
2023-03-14T07:12:56.325Z,5.20
2023-03-14T07:15:27.825Z,4.87
2023-03-14T07:17:59.973Z,5.40
2023-03-14T07:20:29.853Z,11.60
2023-03-14T07:22:58.102Z,5.97
2023-03-14T07:25:38.735Z,6.20
2023-03-14T07:28:08.528Z,6.30
2023-03-14T07:30:38.261Z,6.10
2023-03-14T07:33:13.155Z,6.13
2023-03-14T07:35:41.669Z,6.00
2023-03-14T07:38:15.412Z,6.33
2023-03-14T07:41:02.211Z,6.03
2023-03-14T07:43:33.882Z,7.70
2023-03-14T07:46:03.221Z,5.80
2023-03-14T07:48:31.259Z,7.10
2023-03-14T07:50:59.530Z,5.60
2023-03-14T07:53:27.973Z,5.00
2023-03-14T07:55:56.672Z,3.53
2023-03-14T07:58:24.944Z,2.40
2023-03-14T08:00:54.776Z,3.40
2023-03-14T08:03:22.781Z,3.07
2023-03-14T08:05:51.798Z,5.10
2023-03-14T08:08:21.103Z,4.43
2023-03-14T08:10:50.087Z,5.10
2023-03-14T08:13:18.148Z,13.10
2023-03-14T08:15:49.988Z,8.93
2023-03-14T08:18:19.531Z,2.97
2023-03-14T08:20:47.475Z,3.20
2023-03-14T08:23:15.434Z,5.70
2023-03-14T08:25:43.537Z,3.20
2023-03-14T08:28:11.600Z,2.50
2023-03-14T08:30:39.562Z,2.07
2023-03-14T08:33:07.631Z,1.10
2023-03-14T08:35:36.991Z,6.57
2023-03-14T08:38:05.033Z,3.17
2023-03-14T08:40:33.122Z,8.00
2023-03-14T08:43:01.535Z,1.40
2023-03-14T08:45:29.615Z,2.20
2023-03-14T08:47:57.611Z,3.93
2023-03-14T08:50:25.605Z,1.87
2023-03-14T08:52:54.910Z,1.10
2023-03-14T08:55:23.024Z,2.50
2023-03-14T08:57:50.984Z,2.90
2023-03-14T09:00:20.006Z,3.47
2023-03-14T09:02:48.205Z,2.10
2023-03-14T09:05:16.270Z,1.00
2023-03-14T09:07:44.219Z,2.50
2023-03-14T09:10:14.052Z,2.00
2023-03-14T09:12:42.174Z,3.33
2023-03-14T09:15:11.245Z,2.13
2023-03-14T09:17:39.288Z,2.90
2023-03-14T09:20:09.817Z,1.30
2023-03-14T09:22:38.233Z,1.10
2023-03-14T09:25:06.859Z,0.90
2023-03-14T09:27:36.174Z,1.50
2023-03-14T09:30:04.502Z,1.60
2023-03-14T09:32:33.176Z,0.87
2023-03-14T09:35:01.256Z,1.67
2023-03-14T09:37:29.167Z,1.50
2023-03-14T09:39:57.332Z,4.03
2023-03-14T09:42:28.764Z,1.30
2023-03-14T09:45:01.491Z,1.20
2023-03-14T09:47:30.573Z,0.90
2023-03-14T09:49:59.076Z,1.43
2023-03-14T09:52:32.103Z,0.50
2023-03-14T09:55:05.137Z,0.70
2023-03-14T09:57:35.511Z,0.80
2023-03-14T10:00:14.622Z,0.77
2023-03-14T10:02:47.355Z,1.00
2023-03-14T10:05:18.399Z,0.80
2023-03-14T10:07:46.865Z,1.00
2023-03-14T10:10:20.072Z,1.20
2023-03-14T10:12:49.821Z,1.27
2023-03-14T10:15:27.734Z,2.17
2023-03-14T10:17:55.750Z,1.77
2023-03-14T10:20:33.942Z,1.00
2023-03-14T10:23:04.427Z,2.30
2023-03-14T10:25:34.232Z,3.00
2023-03-14T10:28:02.412Z,1.30
2023-03-14T10:30:44.960Z,1.00
2023-03-14T10:33:21.628Z,3.63
2023-03-14T10:35:55.619Z,1.53
2023-03-14T10:38:26.167Z,1.20
2023-03-14T10:40:56.105Z,1.13
2023-03-14T10:43:28.096Z,4.50
2023-03-14T10:45:59.867Z,1.83
2023-03-14T10:48:33.527Z,5.87
2023-03-14T10:51:06.974Z,2.00
2023-03-14T10:53:46.037Z,0.80
2023-03-14T10:56:15.622Z,1.57
2023-03-14T10:58:45.330Z,1.00
2023-03-14T11:01:33.241Z,1.10
2023-03-14T11:04:06.336Z,1.30
2023-03-14T11:06:43.346Z,4.33
2023-03-14T11:09:18.102Z,1.17
2023-03-14T11:11:49.505Z,0.90
2023-03-14T11:14:26.310Z,1.57
2023-03-14T11:17:01.828Z,1.10
2023-03-14T11:20:07.335Z,3.23
2023-03-14T11:22:41.745Z,10.03
2023-03-14T11:25:22.486Z,1.30
2023-03-14T11:27:59.330Z,2.27
2023-03-14T11:30:36.988Z,2.70
2023-03-14T11:33:15.980Z,1.60
2023-03-14T11:35:49.166Z,3.63
2023-03-14T11:38:29.738Z,1.83
2023-03-14T11:40:59.939Z,5.17
2023-03-14T11:43:31.928Z,4.77
2023-03-14T11:46:05.926Z,2.50
2023-03-14T11:48:42.401Z,7.67
2023-03-14T11:51:15.914Z,3.77
2023-03-14T11:53:53.288Z,3.57
2023-03-14T11:56:28.748Z,2.07
2023-03-14T11:59:01.823Z,1.37
2023-03-14T12:01:41.925Z,1.13
2023-03-14T12:04:17.711Z,1.43
2023-03-14T12:06:50.437Z,1.17
2023-03-14T12:09:20.719Z,1.30
2023-03-14T12:11:53.718Z,1.30
2023-03-14T12:14:25.548Z,0.80
2023-03-14T12:16:58.213Z,1.23
2023-03-14T12:19:37.135Z,2.50
2023-03-14T12:22:19.563Z,3.30
2023-03-14T12:24:51.857Z,0.90
2023-03-14T12:27:49.311Z,1.43
2023-03-14T12:30:28.341Z,1.20
2023-03-14T12:33:30.462Z,2.63
2023-03-14T12:36:14.482Z,1.23
2023-03-14T12:38:54.416Z,1.30
2023-03-14T12:41:27.303Z,1.63
2023-03-14T12:43:55.325Z,2.33
2023-03-14T12:46:27.100Z,1.10
2023-03-14T12:49:06.692Z,2.90
2023-03-14T12:51:39.880Z,2.43
2023-03-14T12:54:39.746Z,1.40
2023-03-14T12:57:28.572Z,1.60
2023-03-14T12:59:59.102Z,1.47
2023-03-14T13:02:30.027Z,2.97
2023-03-14T13:05:07.056Z,2.17
2023-03-14T13:08:00.604Z,1.30
2023-03-14T13:10:37.933Z,1.30
2023-03-14T13:13:17.868Z,0.87
2023-03-14T13:15:47.131Z,1.00
2023-03-14T13:18:17.503Z,1.10
2023-03-14T13:20:50.697Z,3.17
2023-03-14T13:23:23.190Z,1.20
2023-03-14T13:25:52.876Z,1.40
2023-03-14T13:28:21.334Z,1.93
2023-03-14T13:30:50.888Z,1.57
2023-03-14T13:33:20.861Z,1.43
2023-03-14T13:35:51.372Z,1.40
2023-03-14T13:38:21.814Z,1.10
2023-03-14T13:40:52.683Z,2.10
2023-03-14T13:43:25.646Z,4.87
2023-03-14T13:45:57.201Z,1.30
2023-03-14T13:48:28.559Z,1.43
2023-03-14T13:51:01.226Z,1.20
2023-03-14T13:53:29.296Z,1.40
2023-03-14T13:55:58.694Z,1.87
2023-03-14T13:58:31.583Z,1.60
2023-03-14T14:01:06.799Z,2.30
2023-03-14T14:03:38.766Z,2.10
2023-03-14T14:06:10.830Z,2.70
2023-03-14T14:08:42.988Z,1.60
2023-03-14T14:11:23.349Z,2.53
2023-03-14T14:13:54.262Z,1.10
2023-03-14T14:16:26.543Z,2.57
2023-03-14T14:18:56.358Z,1.07
2023-03-14T14:21:24.756Z,1.13
2023-03-14T14:23:52.805Z,1.60
2023-03-14T14:26:22.411Z,1.07
2023-03-14T14:29:01.377Z,1.70
2023-03-14T14:31:29.439Z,1.20
2023-03-14T14:33:59.138Z,0.90
2023-03-14T14:36:30.604Z,2.60
2023-03-14T14:39:05.787Z,1.63
2023-03-14T14:41:37.179Z,1.30
2023-03-14T14:44:06.458Z,1.17
2023-03-14T14:46:37.949Z,0.80
2023-03-14T14:49:08.537Z,1.33
2023-03-14T14:51:43.148Z,2.13
2023-03-14T14:54:16.926Z,3.80
2023-03-14T14:56:51.329Z,1.50
2023-03-14T14:59:29.807Z,1.87
2023-03-14T15:01:59.414Z,1.10
2023-03-14T15:04:27.634Z,2.53
2023-03-14T15:06:55.633Z,1.90
2023-03-14T15:09:23.889Z,1.50
2023-03-14T15:11:53.216Z,1.30
2023-03-14T15:14:21.327Z,1.40
2023-03-14T15:16:49.345Z,1.40
2023-03-14T15:19:25.497Z,1.43
2023-03-14T15:21:54.579Z,3.20
2023-03-14T15:24:22.631Z,1.63
2023-03-14T15:26:50.600Z,1.37
2023-03-14T15:29:20.343Z,1.03
2023-03-14T15:31:48.481Z,1.07
2023-03-14T15:34:17.614Z,1.00
2023-03-14T15:36:45.567Z,1.83
2023-03-14T15:39:13.875Z,0.80
2023-03-14T15:41:41.840Z,1.13
2023-03-14T15:44:09.777Z,2.77
2023-03-14T15:46:39.112Z,1.17
2023-03-14T15:49:07.107Z,1.20
2023-03-14T15:51:35.006Z,2.00
2023-03-14T15:54:03.415Z,0.87
2023-03-14T15:56:33.386Z,1.33
2023-03-14T15:59:01.553Z,1.97
2023-03-14T16:01:29.584Z,1.27
2023-03-14T16:03:58.981Z,0.80
2023-03-14T16:06:27.231Z,1.00
2023-03-14T16:08:55.239Z,0.80
2023-03-14T16:11:23.198Z,0.97
2023-03-14T16:13:51.375Z,0.80
2023-03-14T16:16:19.601Z,1.00
2023-03-14T16:18:47.825Z,0.60
2023-03-14T16:21:19.452Z,0.87
2023-03-14T16:23:47.997Z,0.80
2023-03-14T16:26:17.591Z,0.80
2023-03-14T16:28:47.001Z,0.90
2023-03-14T16:31:17.516Z,0.90
2023-03-14T16:33:46.013Z,3.60
2023-03-14T16:36:15.630Z,1.37
2023-03-14T16:38:46.731Z,2.00
2023-03-14T16:41:17.412Z,4.10
2023-03-14T16:43:46.096Z,2.20
2023-03-14T16:46:16.815Z,1.97
2023-03-14T16:48:45.738Z,1.00
2023-03-14T16:51:14.151Z,1.20
2023-03-14T16:53:42.192Z,1.03
2023-03-14T16:56:12.149Z,1.47
2023-03-14T16:58:40.405Z,1.13
2023-03-14T17:01:11.409Z,1.10
2023-03-14T17:03:40.886Z,1.83
2023-03-14T17:06:11.461Z,1.40
2023-03-14T17:08:39.406Z,1.50
2023-03-14T17:11:08.224Z,1.43
2023-03-14T17:13:38.490Z,1.10
2023-03-14T17:16:07.098Z,1.33
2023-03-14T17:18:35.675Z,1.13
2023-03-14T17:21:04.514Z,1.43
2023-03-14T17:23:34.700Z,1.87
2023-03-14T17:26:02.775Z,1.47
2023-03-14T17:28:31.479Z,1.00
2023-03-14T17:31:05.614Z,2.33
2023-03-14T17:33:33.975Z,1.63
2023-03-14T17:36:02.470Z,1.10
2023-03-14T17:38:31.389Z,0.93
2023-03-14T17:40:59.344Z,0.83
2023-03-14T17:43:27.453Z,1.53
2023-03-14T17:45:59.910Z,0.97
2023-03-14T17:48:30.406Z,1.10
2023-03-14T17:51:02.010Z,1.50
2023-03-14T17:53:31.385Z,2.33
2023-03-14T17:55:59.670Z,0.80
2023-03-14T17:58:28.198Z,2.50
2023-03-14T18:00:57.404Z,1.30
2023-03-14T18:03:25.393Z,0.80
2023-03-14T18:05:54.918Z,3.07
2023-03-14T18:08:23.075Z,1.67
2023-03-14T18:10:55.002Z,1.97
2023-03-14T18:13:23.072Z,3.63
2023-03-14T18:15:52.305Z,1.50
2023-03-14T18:18:20.952Z,1.13
2023-03-14T18:20:54.486Z,1.70
2023-03-14T18:23:23.206Z,1.73
2023-03-14T18:25:52.214Z,1.20
2023-03-14T18:28:21.165Z,1.40
2023-03-14T18:30:52.520Z,4.97
2023-03-14T18:33:22.064Z,2.13
2023-03-14T18:35:52.178Z,1.23
2023-03-14T18:38:21.815Z,1.23
2023-03-14T18:40:49.809Z,1.97
2023-03-14T18:43:17.856Z,1.30
2023-03-14T18:45:45.774Z,1.53
2023-03-14T18:48:13.756Z,1.07
2023-03-14T18:50:42.973Z,1.10
2023-03-14T18:53:11.023Z,3.70
2023-03-14T18:55:41.190Z,3.67
2023-03-14T18:58:09.281Z,1.83
2023-03-14T19:00:37.609Z,1.80
2023-03-14T19:03:06.280Z,2.63
2023-03-14T19:05:34.399Z,2.40
2023-03-14T19:08:02.896Z,1.13
2023-03-14T19:10:33.454Z,1.37
2023-03-14T19:13:03.379Z,0.70
2023-03-14T19:15:32.178Z,1.53
2023-03-14T19:18:00.177Z,1.30
2023-03-14T19:20:28.259Z,1.40
2023-03-14T19:22:58.199Z,6.83
2023-03-14T19:25:27.437Z,1.43
2023-03-14T19:27:56.329Z,1.63
2023-03-14T19:30:27.422Z,3.03
2023-03-14T19:32:55.535Z,1.90
2023-03-14T19:35:24.532Z,2.30
2023-03-14T19:37:52.497Z,2.40
2023-03-14T19:40:20.513Z,3.23
2023-03-14T19:42:48.604Z,2.00
2023-03-14T19:45:17.378Z,1.93
2023-03-14T19:47:47.594Z,1.13
2023-03-14T19:50:15.598Z,3.30
2023-03-14T19:52:45.566Z,2.20
2023-03-14T19:55:13.674Z,2.20
2023-03-14T19:57:42.193Z,1.70
2023-03-14T20:00:17.436Z,2.70
2023-03-14T20:02:47.456Z,1.20
2023-03-14T20:05:16.704Z,2.10
2023-03-14T20:07:46.729Z,2.50
2023-03-14T20:10:16.929Z,1.20
2023-03-14T20:12:45.993Z,1.40
2023-03-14T20:15:18.492Z,2.17
2023-03-14T20:17:48.313Z,1.63
2023-03-14T20:20:17.078Z,1.30
2023-03-14T20:22:46.172Z,3.03
2023-03-14T20:25:18.663Z,6.33
2023-03-14T20:27:47.972Z,2.87
2023-03-14T20:30:18.742Z,1.57
2023-03-14T20:32:49.278Z,3.20
2023-03-14T20:35:23.483Z,2.80
2023-03-14T20:37:53.235Z,5.23
2023-03-14T20:40:21.822Z,4.50
2023-03-14T20:42:50.052Z,1.60
2023-03-14T20:45:18.343Z,1.80
2023-03-14T20:47:46.315Z,8.77
2023-03-14T20:50:15.658Z,3.13
2023-03-14T20:52:43.781Z,2.23
2023-03-14T20:55:12.372Z,1.63
2023-03-14T20:57:41.474Z,1.73
2023-03-14T21:00:15.728Z,2.50
2023-03-14T21:02:43.878Z,5.27
2023-03-14T21:05:13.025Z,1.80
2023-03-14T21:07:43.625Z,1.40
2023-03-14T21:10:13.242Z,1.90
2023-03-14T21:12:41.603Z,1.20
2023-03-14T21:15:14.309Z,2.45
2023-03-14T21:17:42.756Z,2.40
2023-03-14T21:20:12.141Z,3.03
2023-03-14T21:22:40.787Z,1.57
2023-03-14T21:25:10.324Z,1.40
2023-03-14T21:27:39.826Z,1.40
2023-03-14T21:30:10.103Z,1.90
2023-03-14T21:32:38.545Z,3.07
2023-03-14T21:35:07.214Z,2.47
2023-03-14T21:37:35.271Z,7.30
2023-03-14T21:40:03.940Z,2.50
2023-03-14T21:42:33.235Z,3.10
2023-03-14T21:45:01.492Z,3.70
2023-03-14T21:47:29.466Z,2.60
2023-03-14T21:49:57.574Z,2.23
2023-03-14T21:52:25.665Z,2.70
2023-03-14T21:54:53.623Z,5.40
2023-03-14T21:57:21.550Z,2.60
2023-03-14T21:59:51.626Z,1.93
2023-03-14T22:02:20.792Z,1.90
2023-03-14T22:04:48.964Z,1.88
2023-03-14T22:07:19.081Z,1.80
2023-03-14T22:09:48.261Z,2.10
2023-03-14T22:12:19.170Z,3.17
2023-03-14T22:14:48.068Z,1.83
2023-03-14T22:17:20.342Z,1.77
2023-03-14T22:19:48.342Z,3.00
2023-03-14T22:22:16.295Z,2.23
2023-03-14T22:24:44.449Z,1.83
2023-03-14T22:27:13.304Z,4.77
2023-03-14T22:29:41.557Z,2.28
2023-03-14T22:32:11.382Z,2.20
2023-03-14T22:34:41.677Z,6.75
2023-03-14T22:37:09.578Z,1.60
2023-03-14T22:39:37.488Z,3.23
2023-03-14T22:42:05.717Z,8.53
2023-03-14T22:44:34.452Z,3.13
2023-03-14T22:47:02.518Z,2.85
2023-03-14T22:49:32.558Z,1.88
2023-03-14T22:52:01.869Z,2.80
2023-03-14T22:54:29.862Z,1.87
2023-03-14T22:56:57.961Z,2.40
2023-03-14T22:59:26.003Z,2.07
2023-03-14T23:01:53.945Z,6.13
2023-03-14T23:04:21.967Z,3.47
2023-03-14T23:06:49.904Z,2.70
2023-03-14T23:09:19.532Z,3.63
2023-03-14T23:11:47.454Z,3.17
2023-03-14T23:14:15.709Z,2.63
2023-03-14T23:16:43.694Z,2.38
2023-03-14T23:19:11.624Z,2.03
2023-03-14T23:21:39.591Z,2.73
2023-03-14T23:24:08.394Z,3.67
2023-03-14T23:26:37.795Z,2.13
2023-03-14T23:29:06.394Z,2.13
2023-03-14T23:31:34.905Z,1.90
2023-03-14T23:34:02.949Z,1.67
2023-03-14T23:36:31.001Z,4.00
2023-03-14T23:38:58.922Z,1.95
2023-03-14T23:41:26.999Z,4.22
2023-03-14T23:43:56.290Z,2.45
2023-03-14T23:46:24.290Z,1.42
2023-03-14T23:48:54.924Z,2.08
2023-03-14T23:51:23.636Z,1.67
2023-03-14T23:53:51.565Z,3.50
2023-03-14T23:56:19.780Z,4.00
2023-03-14T23:58:47.785Z,1.58
